Hauptseite
METAR-TAF:

METAR-TAF

Flughäfen :

Flughafen Isle of Man

Isle of Man,

Breite: 54-05N, Länge: 004-38W, Höhe: 17 m

Beobachtung

Neuester Wetterbericht von vor 32 Minuten, um 13:20 UTC
Wind 8 kt aus West, variierte zwischen Südwest und West/Nordwest
Temperatur 16°C
Luftfeuchtigkeit 59%
Luftdruck 1015 hPa
Sichtweite 10 km oder mehr
Leicht bewölkt in der Höhe von 2000 ft

METAR: EGNS 231320Z 27008KT 230V300 9999 FEW020 16/08 Q1015 NOSIG

Zeit: 14:52 (13:52 UTC)

Prognose

Neuester Wetterbericht von vor 2 Stunden und 52 Minuten, um 11:00 UTC
Gültige Prognose vom 23 um 12 UTC bis 23 um 21 UTC
Wind 8 kt aus West/Südwest
Sichtweite 10 km oder mehr
Aufgelockert bewölkt in der Höhe von 600 ft
Aufgelockert bewölkt in der Höhe von 4000 ft

TAF: EGNS 231100Z 2312/2321 24008KT 9999 SCT006 SCT040

Wetterbeobachtungen und Prognosen von mehr als 4000 Flughäfen (METAR und TAF Bericht).

Die verfügbaren Stationen werden durch gelbe und rote Markierungen auf der Karte dargestellt.

Führen Sie die Maus auf sie, um den Namen der Station zu sehen.

Darauf klicken, um die Beobachtung von Wetterbeobachtungen und Prognosen zu sehen.

Um die Karte zu ändern : klicken Sie auf den grünen Tasten mit einem schwarzen Kreuz Zum Vergrößern, auf den grünen Button mit einem Gedankenstrich zu verkleinern, oder auf die grünen Pfeile für benachbarte Karten.


METAR-TAF: